Time;durP1;ratioP1;P1;durP2;ratioP2;P2;SDS_P1;SDS_P2;PMS_P1;PMS_P2;Temp;Humidity;BMP_temperature;BMP_pressure;BME280_temperature;BME280_humidity;BME280_pressure;Samples;Min_cycle;Max_cycle;Signal;HPM_P1;HPM_P2
2022/08/02 00:01:34;;;;;;;1.90;1.73;;;;;;;19.90;61.00;94709.53;5013774;28;20267;-76
2022/08/02 00:04:00;;;;;;;1.98;1.77;;;;;;;19.83;61.27;94697.53;5013533;28;20191;-76
2022/08/02 00:06:26;;;;;;;4.05;1.70;;;;;;;19.83;61.70;94710.91;5013542;28;20176;-76
2022/08/02 00:08:52;;;;;;;3.22;1.77;;;;;;;19.58;62.08;94672.50;5013062;28;20617;-76
2022/08/02 00:11:18;;;;;;;3.70;2.10;;;;;;;19.70;62.31;94703.47;5013238;28;20283;-76
2022/08/02 00:13:43;;;;;;;5.40;2.00;;;;;;;19.65;62.69;94700.78;5013215;28;20176;-76
2022/08/02 00:16:09;;;;;;;3.80;2.05;;;;;;;19.60;63.15;94704.28;5013454;28;20179;-76
2022/08/02 00:18:34;;;;;;;6.03;1.92;;;;;;;19.60;62.72;94701.63;5013069;28;20187;-76
2022/08/02 00:21:00;;;;;;;4.15;2.17;;;;;;;19.57;62.94;94697.59;5013379;28;20377;-77
2022/08/02 00:23:25;;;;;;;4.65;1.90;;;;;;;19.57;63.04;94702.16;5013418;28;21007;-77
2022/08/02 00:25:50;;;;;;;2.10;1.90;;;;;;;19.55;63.02;94701.59;5013331;28;20184;-77
2022/08/02 00:28:16;;;;;;;4.00;2.03;;;;;;;19.52;62.99;94697.63;5013096;28;20645;-77
2022/08/02 00:30:41;;;;;;;5.15;2.20;;;;;;;19.49;63.13;94697.34;5013146;28;20201;-77
2022/08/02 00:33:07;;;;;;;1.90;1.60;;;;;;;19.22;63.29;94652.25;5013210;28;20176;-77
2022/08/02 00:35:34;;;;;;;2.25;1.90;;;;;;;19.47;62.59;94702.97;5012827;28;20230;-77
2022/08/02 00:38:03;;;;;;;2.20;1.80;;;;;;;19.46;62.62;94695.22;5012804;28;20184;-77
2022/08/02 00:40:29;;;;;;;2.15;1.70;;;;;;;19.26;63.31;94672.00;5013342;28;20629;-77
2022/08/02 00:43:09;;;;;;;2.47;2.05;;;;;;;19.36;63.18;94690.69;5013008;28;20271;-76
2022/08/02 00:45:37;;;;;;;3.40;1.80;;;;;;;19.33;63.19;94696.56;5013014;28;20267;-76
2022/08/02 00:48:05;;;;;;;2.50;2.03;;;;;;;19.30;63.69;94691.75;5012913;28;20176;-77
2022/08/02 00:50:31;;;;;;;2.30;2.10;;;;;;;19.29;64.59;94700.00;5012777;28;20286;-77
2022/08/02 00:52:57;;;;;;;2.20;2.00;;;;;;;19.20;64.82;94689.88;5012494;28;20679;-76
2022/08/02 00:55:23;;;;;;;3.03;1.98;;;;;;;19.14;64.72;94682.16;5012636;28;20588;-76
2022/08/02 00:57:48;;;;;;;2.40;1.95;;;;;;;18.99;64.85;94652.81;5012602;28;20217;-76
2022/08/02 01:00:14;;;;;;;4.63;2.10;;;;;;;18.78;64.96;94623.47;5012517;28;20581;-76
2022/08/02 01:02:40;;;;;;;7.68;3.10;;;;;;;19.19;65.18;94693.63;5012383;28;20187;-76
2022/08/02 01:05:06;;;;;;;4.80;2.80;;;;;;;19.15;65.29;94684.56;5012566;28;20259;-76
2022/08/02 01:07:32;;;;;;;6.22;4.20;;;;;;;18.94;65.42;94650.16;5011850;28;20299;-76
2022/08/02 01:09:59;;;;;;;11.93;4.53;;;;;;;19.08;65.79;94685.91;5011997;28;20188;-76
2022/08/02 01:12:24;;;;;;;12.02;5.10;;;;;;;19.07;66.23;94684.28;5012144;28;20287;-76
2022/08/02 01:14:52;;;;;;;12.63;5.03;;;;;;;19.05;66.53;94687.22;5012105;28;20255;-76
2022/08/02 01:17:21;;;;;;;13.35;5.60;;;;;;;19.02;66.48;94692.31;5012138;28;20184;-76
2022/08/02 01:19:56;;;;;;;11.02;5.60;;;;;;;19.00;66.71;94692.56;5012113;28;20188;-76
2022/08/02 01:22:36;;;;;;;17.00;6.72;;;;;;;18.95;66.80;94681.09;5011873;28;20306;-76
2022/08/02 01:25:16;;;;;;;12.68;4.95;;;;;;;18.93;66.98;94688.56;5012354;28;20203;-76
2022/08/02 01:27:59;;;;;;;13.23;5.05;;;;;;;18.89;66.65;94693.63;5005374;28;20188;-76
2022/08/02 01:30:27;;;;;;;13.70;5.28;;;;;;;18.89;66.79;94698.97;5011765;28;20203;-76
2022/08/02 01:32:58;;;;;;;10.70;4.38;;;;;;;18.85;66.63;94688.00;5012045;28;20198;-76
2022/08/02 01:35:31;;;;;;;11.68;4.63;;;;;;;18.75;67.28;94676.56;5011672;28;20216;-76
2022/08/02 01:38:06;;;;;;;7.90;2.63;;;;;;;18.67;65.95;94671.75;5011603;28;20211;-76
2022/08/02 01:40:35;;;;;;;4.35;2.45;;;;;;;18.72;66.14;94690.41;5012098;28;20187;-76
2022/08/02 01:43:01;;;;;;;3.63;2.08;;;;;;;18.54;66.28;94669.56;4994113;28;20665;-76
2022/08/02 01:45:33;;;;;;;2.50;2.00;;;;;;;18.62;66.18;94691.19;5011601;28;20180;-76
2022/08/02 01:47:59;;;;;;;2.28;2.08;;;;;;;18.60;66.46;94692.53;5011631;28;20187;-76
2022/08/02 01:50:28;;;;;;;5.10;2.10;;;;;;;18.56;66.51;94691.44;5011711;28;20176;-76
2022/08/02 01:52:56;;;;;;;4.25;2.13;;;;;;;18.55;67.16;94687.97;5011585;28;20172;-76
2022/08/02 01:55:27;;;;;;;3.08;2.10;;;;;;;18.57;67.12;94687.75;5011654;28;20172;-76
2022/08/02 01:57:57;;;;;;;2.05;1.88;;;;;;;18.55;67.30;94690.63;5011744;28;20263;-76
2022/08/02 02:00:27;;;;;;;3.15;2.33;;;;;;;18.30;67.70;94670.06;5011648;28;20176;-76
2022/08/02 02:02:55;;;;;;;3.55;2.80;;;;;;;18.47;67.60;94701.81;5011576;28;20208;-76
2022/08/02 02:05:24;;;;;;;2.80;2.13;;;;;;;18.42;67.69;94699.91;5011585;28;20192;-76
2022/08/02 02:07:55;;;;;;;3.83;2.60;;;;;;;18.42;67.60;94705.25;5011511;28;20179;-76
2022/08/02 02:10:26;;;;;;;2.50;2.03;;;;;;;18.38;67.27;94703.41;5011389;28;20195;-76
2022/08/02 02:12:53;;;;;;;5.07;2.35;;;;;;;18.31;67.37;94702.84;5011510;28;20550;-76
2022/08/02 02:15:21;;;;;;;5.90;2.38;;;;;;;18.27;67.44;94704.41;5011576;28;20590;-76
2022/08/02 02:17:50;;;;;;;2.85;2.20;;;;;;;18.25;67.24;94694.00;5011583;28;20180;-76
2022/08/02 02:20:18;;;;;;;4.93;2.50;;;;;;;18.18;67.88;94698.78;5011355;28;20212;-77
2022/08/02 02:22:44;;;;;;;3.90;2.50;;;;;;;18.21;68.30;94694.81;4993683;28;20693;-77
2022/08/02 02:25:11;;;;;;;6.85;3.03;;;;;;;18.23;68.96;94692.69;5011313;28;20215;-77
2022/08/02 02:27:42;;;;;;;4.00;2.65;;;;;;;18.18;69.33;94703.31;5011176;28;20188;-77
2022/08/02 02:30:08;;;;;;;4.45;3.42;;;;;;;18.15;69.34;94701.19;5011689;28;20212;-77
2022/08/02 02:32:34;;;;;;;3.97;2.35;;;;;;;18.11;69.70;94698.25;5011241;28;20299;-77
2022/08/02 02:35:02;;;;;;;5.50;2.80;;;;;;;18.12;69.74;94699.03;4993650;28;20200;-77
2022/08/02 02:37:31;;;;;;;3.67;2.85;;;;;;;18.06;69.62;94701.72;5011143;28;20176;-76
2022/08/02 02:39:57;;;;;;;4.60;2.80;;;;;;;18.01;70.33;94700.88;5011325;28;20188;-77
2022/08/02 02:42:27;;;;;;;4.00;2.30;;;;;;;17.96;70.29;94699.00;5010707;28;20184;-77
2022/08/02 02:44:54;;;;;;;7.28;3.10;;;;;;;17.82;70.41;94684.53;5001848;28;20211;-76
2022/08/02 02:47:21;;;;;;;6.18;2.72;;;;;;;17.82;70.71;94694.38;5010161;28;20185;-77
2022/08/02 02:49:48;;;;;;;4.13;2.88;;;;;;;17.82;71.61;94694.38;5010070;28;20184;-78
2022/08/02 02:52:15;;;;;;;5.45;3.13;;;;;;;17.59;70.95;94653.00;5010730;28;20196;-77
2022/08/02 02:54:42;;;;;;;4.85;2.55;;;;;;;17.84;71.51;94700.25;5011142;28;20181;-78
2022/08/02 02:57:08;;;;;;;4.28;2.45;;;;;;;17.83;70.86;94699.47;5011264;28;20212;-78
2022/08/02 02:59:35;;;;;;;5.05;2.67;;;;;;;17.79;71.12;94705.56;5011424;28;20177;-77
2022/08/02 03:02:01;;;;;;;7.43;2.95;;;;;;;17.76;71.33;94711.41;5011445;28;20183;-77
2022/08/02 03:04:27;;;;;;;6.10;3.13;;;;;;;17.67;71.90;94709.25;5011406;28;20665;-77
2022/08/02 03:06:53;;;;;;;5.53;2.90;;;;;;;17.69;71.89;94711.66;5011507;28;20207;-77
2022/08/02 03:09:19;;;;;;;7.63;3.00;;;;;;;17.64;71.43;94700.97;5011215;28;20960;-78
2022/08/02 03:11:45;;;;;;;3.28;2.63;;;;;;;17.60;71.71;94700.66;5010960;28;20212;-77
2022/08/02 03:14:11;;;;;;;5.05;2.78;;;;;;;17.66;71.81;94707.63;5011293;28;20184;-78
2022/08/02 03:16:47;;;;;;;7.10;3.15;;;;;;;17.70;71.55;94700.75;5011076;28;20184;-77
2022/08/02 03:19:13;;;;;;;5.70;3.78;;;;;;;17.71;71.45;94706.88;5011268;28;20184;-77
2022/08/02 03:21:38;;;;;;;11.82;4.20;;;;;;;17.69;71.31;94712.44;5010815;28;20238;-77
2022/08/02 03:24:04;;;;;;;8.25;4.22;;;;;;;17.62;71.52;94690.59;5010918;28;20243;-77
2022/08/02 03:26:30;;;;;;;12.60;5.65;;;;;;;17.52;71.50;94687.84;5011056;28;20208;-77
2022/08/02 03:28:55;;;;;;;12.05;4.20;;;;;;;17.65;71.69;94700.69;5010942;28;20263;-77
2022/08/02 03:31:21;;;;;;;9.82;5.40;;;;;;;17.32;71.46;94661.09;5012907;28;20286;-77
2022/08/02 03:33:46;;;;;;;14.55;4.85;;;;;;;17.47;71.59;94697.66;5014484;28;20260;-77
2022/08/02 03:36:15;;;;;;;9.82;4.57;;;;;;;17.57;71.44;94703.00;5014371;28;20588;-77
2022/08/02 03:38:42;;;;;;;12.25;4.63;;;;;;;17.52;71.54;94689.69;5014364;28;20832;-77
2022/08/02 03:41:11;;;;;;;11.68;4.18;;;;;;;17.59;71.22;94708.88;5013830;28;20180;-77
2022/08/02 03:43:38;;;;;;;7.00;3.50;;;;;;;17.48;71.11;94699.22;5015864;28;20282;-77
2022/08/02 03:46:06;;;;;;;11.95;3.72;;;;;;;17.57;71.04;94706.47;5014469;28;20204;-78
2022/08/02 03:48:32;;;;;;;10.98;3.53;;;;;;;17.64;71.03;94708.97;5014520;28;20183;-79
2022/08/02 03:50:59;;;;;;;5.97;3.22;;;;;;;17.70;70.37;94713.25;5014673;28;20486;-78
2022/08/02 03:53:24;;;;;;;11.40;3.22;;;;;;;17.49;70.81;94691.00;5012844;28;20208;-76
2022/08/02 03:55:50;;;;;;;9.63;3.30;;;;;;;17.73;70.18;94729.50;5015155;28;20211;-77
2022/08/02 03:58:21;;;;;;;5.70;3.45;;;;;;;17.70;70.18;94726.56;5011327;28;20203;-77
2022/08/02 04:00:47;;;;;;;12.80;3.97;;;;;;;17.75;69.88;94736.44;5012556;28;20200;-77
2022/08/02 04:03:13;;;;;;;9.73;3.92;;;;;;;17.86;69.27;94743.41;5013292;28;20219;-77
2022/08/02 04:05:39;;;;;;;9.23;4.00;;;;;;;17.96;69.49;94732.81;5012708;28;20606;-77
2022/08/02 04:08:05;;;;;;;10.70;4.05;;;;;;;18.13;68.71;94737.94;5013494;28;20185;-77
2022/08/02 04:10:30;;;;;;;8.32;3.60;;;;;;;18.24;68.27;94739.59;5014026;28;20184;-77
2022/08/02 04:12:57;;;;;;;6.97;4.07;;;;;;;18.38;67.58;94744.19;5016840;28;20254;-77
2022/08/02 04:15:23;;;;;;;8.57;4.03;;;;;;;18.48;66.63;94751.41;5012879;28;20180;-77
2022/08/02 04:17:58;;;;;;;5.30;3.10;;;;;;;18.59;66.15;94747.75;5013531;28;20271;-77
2022/08/02 04:20:28;;;;;;;6.72;2.88;;;;;;;18.76;65.96;94753.66;4994276;28;20619;-77
2022/08/02 04:22:59;;;;;;;4.20;3.08;;;;;;;18.96;64.91;94752.06;5011923;28;20232;-77
2022/08/02 04:25:25;;;;;;;5.82;2.90;;;;;;;19.04;64.66;94730.19;5013073;28;20188;-77
2022/08/02 04:27:52;;;;;;;4.85;2.90;;;;;;;19.39;64.30;94750.72;5011691;28;20255;-77
2022/08/02 04:30:19;;;;;;;5.95;3.05;;;;;;;19.62;62.53;94755.56;5013123;28;20169;-78
2022/08/02 04:32:45;;;;;;;5.85;3.22;;;;;;;19.75;61.56;94749.66;5013071;28;20184;-78
2022/08/02 04:35:12;;;;;;;4.75;2.80;;;;;;;20.00;60.68;94754.13;5013494;28;20259;-78
2022/08/02 04:37:38;;;;;;;9.90;3.30;;;;;;;20.25;60.13;94754.03;5012882;28;20187;-78
2022/08/02 04:40:14;;;;;;;7.05;3.45;;;;;;;20.54;59.16;94740.06;5012187;28;20180;-78
2022/08/02 04:42:40;;;;;;;8.93;3.38;;;;;;;20.98;57.78;94756.91;5012868;28;20172;-76
2022/08/02 04:45:06;;;;;;;6.18;3.42;;;;;;;21.37;56.56;94753.44;4995066;28;20548;-78
2022/08/02 04:47:32;;;;;;;6.10;2.92;;;;;;;21.73;55.38;94756.59;5013725;28;20190;-77
2022/08/02 04:49:57;;;;;;;7.60;2.78;;;;;;;21.98;53.85;94752.88;5012247;28;20168;-77
2022/08/02 04:52:23;;;;;;;5.35;3.15;;;;;;;22.07;53.91;94735.09;5012543;28;20248;-77
2022/08/02 04:54:50;;;;;;;6.15;3.25;;;;;;;22.62;53.05;94765.81;5012405;28;20186;-77
2022/08/02 05:00:00;;;;;;;6.82;3.47;;;;;;;23.51;50.15;94758.69;5012225;28;20235;-77
2022/08/02 05:02:25;;;;;;;6.50;3.15;;;;;;;23.88;49.30;94756.94;5012343;28;20188;-78
2022/08/02 05:04:51;;;;;;;8.82;3.38;;;;;;;24.39;48.72;94759.50;5011778;28;20199;-77
2022/08/02 05:07:16;;;;;;;5.10;3.28;;;;;;;25.08;47.49;94758.31;5010816;28;20851;-78
2022/08/02 05:09:41;;;;;;;7.50;3.95;;;;;;;25.64;45.47;94746.25;5010921;28;20650;-78
2022/08/02 05:12:07;;;;;;;7.50;3.40;;;;;;;26.27;44.42;94753.28;5008650;28;20221;-78
2022/08/02 05:14:33;;;;;;;9.95;3.78;;;;;;;26.95;43.02;94762.69;5010749;28;20187;-78
2022/08/02 05:16:58;;;;;;;4.50;3.38;;;;;;;27.63;41.65;94764.63;5010760;28;20176;-78
2022/08/02 05:19:23;;;;;;;11.52;3.63;;;;;;;28.40;40.29;94769.06;5010873;28;20621;-78
2022/08/02 05:21:50;;;;;;;6.88;3.03;;;;;;;28.90;39.32;94744.75;5011940;28;20192;-78
2022/08/02 05:24:15;;;;;;;8.05;3.67;;;;;;;29.72;37.68;94766.00;5011713;28;20218;-78
2022/08/02 05:26:41;;;;;;;9.48;4.00;;;;;;;30.37;36.75;94773.31;5011898;28;20250;-79
2022/08/02 05:29:06;;;;;;;12.95;2.97;;;;;;;30.93;36.23;94765.44;5012172;28;20597;-79
2022/08/02 05:31:32;;;;;;;6.10;2.70;;;;;;;31.54;34.02;94777.00;5012218;28;20196;-78
2022/08/02 05:33:57;;;;;;;3.20;2.47;;;;;;;32.17;31.93;94779.97;5011766;28;20180;-78
2022/08/02 05:36:23;;;;;;;1318.00;554.90;;;;;;;32.70;31.70;94772.34;5011856;28;20259;-79
2022/08/02 05:38:51;;;;;;;474.23;76.40;;;;;;;32.88;30.86;94759.91;5011870;28;20562;-78
2022/08/02 05:41:18;;;;;;;6.05;2.53;;;;;;;33.09;30.77;94779.50;5011980;28;20264;-78
2022/08/02 05:43:44;;;;;;;4.95;2.15;;;;;;;33.45;29.11;94783.06;5011369;28;20180;-78
2022/08/02 05:46:10;;;;;;;3.28;2.15;;;;;;;33.69;29.66;94783.56;5011807;28;20215;-78
2022/08/02 05:48:35;;;;;;;2.97;1.85;;;;;;;34.20;29.33;94786.13;5011375;28;20219;-78
2022/08/02 05:51:08;;;;;;;5.00;2.25;;;;;;;34.80;27.77;94778.22;5011175;28;21121;-78
2022/08/02 05:53:54;;;;;;;5.00;1.88;;;;;;;34.81;27.22;94785.28;5010692;28;20176;-78
2022/08/02 05:56:46;;;;;;;4.25;1.65;;;;;;;34.87;27.52;94785.75;5008300;28;20169;-78
2022/08/02 05:59:31;;;;;;;1.67;1.58;;;;;;;34.85;27.40;94788.88;5009989;28;20711;-78
2022/08/02 06:02:02;;;;;;;3.38;1.63;;;;;;;34.69;27.03;94783.50;5010315;28;20244;-78
2022/08/02 06:04:47;;;;;;;2.55;1.73;;;;;;;34.65;27.43;94790.88;5010126;28;20203;-78
2022/08/02 06:07:14;;;;;;;4.07;2.15;;;;;;;34.12;27.66;94791.84;5009255;28;20208;-78
2022/08/02 06:09:42;;;;;;;4.10;1.85;;;;;;;33.85;29.40;94788.19;5011203;28;20260;-78
2022/08/02 06:12:11;;;;;;;2.83;1.88;;;;;;;33.74;28.85;94804.34;5010773;28;20252;-78
2022/08/02 06:14:37;;;;;;;1.85;1.65;;;;;;;33.67;29.01;94796.00;5010043;28;20186;-78
2022/08/02 06:17:03;;;;;;;4.20;2.72;;;;;;;33.59;28.92;94800.53;5010903;28;20168;-78
2022/08/02 06:19:31;;;;;;;5.40;2.83;;;;;;;33.42;29.82;94800.13;5010905;28;20699;-78
2022/08/02 06:22:13;;;;;;;6.32;3.33;;;;;;;33.33;29.62;94806.59;5010901;28;20176;-78
2022/08/02 06:24:43;;;;;;;3.17;2.35;;;;;;;33.05;29.61;94772.38;5004259;28;20197;-78
2022/08/02 06:27:13;;;;;;;3.33;2.00;;;;;;;33.02;29.98;94798.47;5011143;28;20176;-79
2022/08/02 06:29:48;;;;;;;1.67;1.58;;;;;;;32.95;30.92;94801.78;5010864;28;20267;-79
2022/08/02 06:32:23;;;;;;;3.40;1.92;;;;;;;32.96;29.07;94797.91;5010971;28;20588;-79
2022/08/02 06:34:48;;;;;;;4.30;1.70;;;;;;;32.60;30.42;94809.13;5009716;28;20187;-78
2022/08/02 06:37:14;;;;;;;3.70;1.70;;;;;;;32.39;30.49;94809.34;5011214;28;20196;-79
2022/08/02 06:39:50;;;;;;;5.82;2.03;;;;;;;32.16;31.18;94821.97;5011160;28;20621;-79
2022/08/02 06:42:31;;;;;;;3.28;1.92;;;;;;;32.04;30.79;94827.44;5009835;28;20653;-78
2022/08/02 06:44:57;;;;;;;5.75;2.17;;;;;;;31.95;30.82;94824.88;5010953;28;20634;-79
2022/08/02 06:47:22;;;;;;;2.08;1.48;;;;;;;31.69;30.13;94792.63;5011094;28;20239;-79
2022/08/02 06:49:48;;;;;;;7.38;1.50;;;;;;;31.70;32.40;94816.00;5010800;28;20184;-79
2022/08/02 06:52:13;;;;;;;5.93;1.55;;;;;;;31.82;31.58;94812.47;5011131;28;20697;-80
2022/08/02 06:54:41;;;;;;;4.82;1.70;;;;;;;31.97;31.71;94817.16;5011498;28;20218;-79
2022/08/02 06:57:08;;;;;;;3.60;2.20;;;;;;;32.25;30.92;94819.91;5011034;28;20175;-79
2022/08/02 06:59:33;;;;;;;2.85;1.90;;;;;;;32.39;30.80;94808.56;5010957;28;20638;-79
2022/08/02 07:02:01;;;;;;;5.32;2.30;;;;;;;32.44;30.04;94817.25;5010565;28;20183;-77
2022/08/02 07:04:27;;;;;;;3.35;2.38;;;;;;;32.18;31.99;94814.22;5010025;28;20672;-77
2022/08/02 07:06:52;;;;;;;14.05;2.90;;;;;;;32.11;31.83;94806.63;5013754;28;20227;-78
2022/08/02 07:09:18;;;;;;;4.28;2.35;;;;;;;32.20;32.17;94810.03;5010622;28;20614;-79
2022/08/02 07:11:43;;;;;;;6.68;2.58;;;;;;;31.30;32.29;94812.47;5014175;28;20195;-79
2022/08/02 07:14:08;;;;;;;1.60;1.50;;;;;;;30.98;34.36;94793.19;5013724;28;20165;-80
2022/08/02 07:16:34;;;;;;;1.75;1.60;;;;;;;31.36;32.93;94802.91;5013962;28;20630;-80
2022/08/02 07:18:59;;;;;;;4.05;1.92;;;;;;;31.58;32.80;94818.72;5014823;28;20173;-80
2022/08/02 07:21:25;;;;;;;2.80;1.75;;;;;;;31.82;32.83;94815.19;5014974;28;20171;-79
2022/08/02 07:23:50;;;;;;;8.43;1.90;;;;;;;31.98;32.54;94816.03;5014205;28;20227;-82
2022/08/02 07:26:15;;;;;;;2.38;1.73;;;;;;;31.88;33.39;94785.75;5014796;28;20168;-81
2022/08/02 07:28:41;;;;;;;2.85;1.83;;;;;;;31.85;32.47;94806.28;5014509;28;20175;-82
2022/08/02 07:31:06;;;;;;;6.10;1.55;;;;;;;31.95;32.31;94805.00;5014434;28;20621;-80
2022/08/02 07:33:32;;;;;;;5.13;2.90;;;;;;;31.97;32.23;94806.25;5014375;28;20168;-80
2022/08/02 07:35:57;;;;;;;3.28;2.38;;;;;;;31.86;32.67;94805.16;5014032;28;20223;-78
2022/08/02 07:38:23;;;;;;;3.22;1.58;;;;;;;31.85;31.98;94789.94;5013450;28;20551;-78
2022/08/02 07:40:49;;;;;;;3.70;1.65;;;;;;;31.68;33.12;94803.88;5014026;28;20660;-79
2022/08/02 07:43:15;;;;;;;1.45;1.35;;;;;;;31.90;33.00;94803.34;5013624;28;20231;-78
2022/08/02 07:45:41;;;;;;;2.72;1.35;;;;;;;31.66;33.33;94806.13;5011922;28;20180;-78
2022/08/02 07:48:07;;;;;;;3.40;1.50;;;;;;;31.70;32.09;94779.81;5013346;28;20176;-78
2022/08/02 07:50:33;;;;;;;2.33;1.85;;;;;;;32.12;32.81;94799.25;5012714;28;20180;-78
2022/08/02 07:52:58;;;;;;;2.67;1.40;;;;;;;32.40;31.62;94796.50;5013078;28;20561;-78
2022/08/02 07:55:24;;;;;;;7.28;1.98;;;;;;;32.25;30.74;94778.22;5013365;28;20173;-78
2022/08/02 07:57:51;;;;;;;2.47;1.50;;;;;;;32.18;30.99;94801.41;5011305;28;20180;-78
2022/08/02 08:00:16;;;;;;;7.55;5.85;;;;;;;32.09;31.04;94802.66;5010604;28;20717;-77
2022/08/02 08:02:43;;;;;;;8.38;2.63;;;;;;;31.75;31.91;94763.22;5013389;28;20180;-81
2022/08/02 08:05:08;;;;;;;2.28;1.50;;;;;;;31.44;32.38;94800.06;5014208;28;20172;-79
2022/08/02 08:07:34;;;;;;;1.27;1.17;;;;;;;31.49;32.75;94799.00;5013729;28;20255;-79
2022/08/02 08:10:00;;;;;;;1.58;1.48;;;;;;;31.34;31.62;94777.97;5013843;28;20277;-80
2022/08/02 08:12:26;;;;;;;3.33;1.50;;;;;;;31.45;32.31;94795.41;5013903;28;20189;-79
2022/08/02 08:14:51;;;;;;;1.25;1.17;;;;;;;31.44;32.89;94796.53;5013637;28;20184;-81
2022/08/02 08:17:17;;;;;;;2.58;1.70;;;;;;;31.59;31.98;94786.84;5012933;28;20263;-79
2022/08/02 08:19:42;;;;;;;1.88;1.20;;;;;;;31.67;31.40;94785.94;5012945;28;20307;-78
2022/08/02 08:22:08;;;;;;;1.67;1.40;;;;;;;31.96;30.98;94799.22;5013081;28;20638;-79
2022/08/02 08:24:33;;;;;;;2.03;1.30;;;;;;;32.13;31.95;94792.66;5013110;28;20164;-83
2022/08/02 08:26:59;;;;;;;5.35;1.35;;;;;;;31.92;31.38;94797.53;5014851;28;20203;-79
2022/08/02 08:29:25;;;;;;;1.45;1.35;;;;;;;31.36;31.39;94762.88;5012341;28;20641;-79
2022/08/02 08:31:51;;;;;;;2.58;1.30;;;;;;;31.07;31.96;94774.84;4994838;28;20639;-77
2022/08/02 08:34:16;;;;;;;1.40;1.30;;;;;;;30.65;33.17;94777.00;5012080;28;20264;-76
2022/08/02 08:36:42;;;;;;;3.50;1.40;;;;;;;30.93;34.62;94781.75;5012479;28;20203;-78
2022/08/02 08:39:08;;;;;;;2.10;1.45;;;;;;;31.26;33.45;94789.78;5012230;28;20184;-78
2022/08/02 08:41:35;;;;;;;7.28;1.50;;;;;;;31.36;33.37;94757.44;5012563;28;20255;-76
2022/08/02 08:44:00;;;;;;;3.03;1.30;;;;;;;31.32;32.66;94764.69;5012540;28;20180;-79
2022/08/02 08:46:32;;;;;;;5.05;1.10;;;;;;;31.89;33.59;94784.63;5013234;28;20177;-78
2022/08/02 08:49:08;;;;;;;1.42;1.15;;;;;;;31.88;32.00;94794.72;5012863;28;20673;-78
2022/08/02 08:51:40;;;;;;;2.25;1.30;;;;;;;31.66;31.30;94790.59;5012444;28;20196;-77
2022/08/02 08:54:09;;;;;;;1.38;1.10;;;;;;;31.58;31.67;94766.19;5012588;28;20247;-77
2022/08/02 08:56:35;;;;;;;1.27;1.17;;;;;;;31.77;30.92;94788.19;5011218;28;20184;-77
2022/08/02 08:59:03;;;;;;;3.90;1.10;;;;;;;32.04;31.36;94787.38;5010893;28;20650;-77
2022/08/02 09:01:29;;;;;;;1.42;1.30;;;;;;;31.58;32.25;94783.34;5009085;28;20184;-77
2022/08/02 09:03:56;;;;;;;1.23;1.13;;;;;;;30.80;32.56;94783.66;5009610;28;20176;-77
2022/08/02 09:06:21;;;;;;;2.92;1.40;;;;;;;30.65;32.51;94776.19;5009920;28;20263;-77
2022/08/02 09:08:47;;;;;;;2.22;1.20;;;;;;;30.69;33.94;94780.63;5009639;28;20743;-77
2022/08/02 09:11:14;;;;;;;1.20;1.08;;;;;;;31.06;33.54;94784.09;5009453;28;20195;-77
2022/08/02 09:13:54;;;;;;;4.70;1.25;;;;;;;31.52;32.86;94786.66;5009972;28;20176;-77
2022/08/02 09:16:36;;;;;;;3.40;1.08;;;;;;;31.66;30.65;94789.78;5011028;28;20180;-77
2022/08/02 09:19:17;;;;;;;1.10;1.00;;;;;;;31.34;32.20;94786.13;5011208;28;20222;-77
2022/08/02 09:21:43;;;;;;;1.15;1.05;;;;;;;31.34;32.34;94781.47;5011329;28;20703;-77
2022/08/02 09:24:21;;;;;;;10.10;5.57;;;;;;;31.17;32.21;94780.94;5010727;28;21329;-77
2022/08/02 09:26:47;;;;;;;1.85;1.25;;;;;;;31.27;32.38;94783.19;5011104;28;20184;-77
2022/08/02 09:29:14;;;;;;;1.50;0.80;;;;;;;31.29;30.22;94779.00;5010710;28;20184;-77
2022/08/02 09:31:39;;;;;;;1.08;0.93;;;;;;;31.16;31.13;94777.44;5010800;28;20729;-77
2022/08/02 09:34:05;;;;;;;1.55;0.95;;;;;;;31.00;32.79;94755.56;5010945;28;20256;-77
2022/08/02 09:36:38;;;;;;;5.65;1.40;;;;;;;31.17;31.49;94770.06;5010950;28;20176;-77
2022/08/02 09:39:06;;;;;;;1.33;1.23;;;;;;;30.87;31.80;94767.59;5011045;28;20184;-77
2022/08/02 09:41:34;;;;;;;1.48;1.38;;;;;;;30.34;33.32;94763.16;5011075;28;20200;-76
2022/08/02 09:44:03;;;;;;;1.70;1.48;;;;;;;29.51;36.05;94753.25;5010849;28;20176;-75
2022/08/02 09:46:31;;;;;;;3.55;1.10;;;;;;;29.57;36.39;94757.38;5010655;28;20176;-76
2022/08/02 09:49:04;;;;;;;1.40;1.30;;;;;;;29.66;36.80;94757.28;5010750;28;20212;-76
2022/08/02 09:51:35;;;;;;;1.15;1.10;;;;;;;29.73;33.99;94757.53;5010607;28;20630;-76
2022/08/02 09:54:08;;;;;;;3.35;0.90;;;;;;;29.47;33.88;94732.56;5010690;28;20606;-76
2022/08/02 09:56:46;;;;;;;1.10;0.75;;;;;;;29.36;34.66;94750.38;5010625;28;20176;-76
2022/08/02 09:59:13;;;;;;;0.95;0.95;;;;;;;29.32;33.65;94742.06;5010636;28;20190;-76
2022/08/02 10:01:39;;;;;;;0.88;0.80;;;;;;;29.23;33.21;94750.25;5010636;28;20258;-76
2022/08/02 10:04:10;;;;;;;1.15;0.77;;;;;;;29.24;34.14;94754.56;5010781;28;20514;-76
2022/08/02 10:06:40;;;;;;;0.80;0.80;;;;;;;29.47;35.40;94749.63;5010473;28;20183;-76
2022/08/02 10:09:07;;;;;;;0.80;0.75;;;;;;;29.68;34.84;94748.78;5010385;28;20180;-76
2022/08/02 10:11:34;;;;;;;1.70;0.80;;;;;;;29.93;36.15;94753.97;5010955;28;20193;-76
2022/08/02 10:14:02;;;;;;;1.38;1.27;;;;;;;30.06;34.22;94749.41;5010827;28;20180;-77
2022/08/02 10:16:28;;;;;;;1.63;1.08;;;;;;;29.70;34.43;94751.97;5013349;28;20183;-77
2022/08/02 10:18:55;;;;;;;0.82;0.82;;;;;;;29.41;34.68;94748.22;5022614;28;20172;-77
2022/08/02 10:21:46;;;;;;;0.98;0.98;;;;;;;29.43;35.88;94745.97;5017601;28;20172;-77
2022/08/02 10:24:16;;;;;;;2.65;0.93;;;;;;;29.46;35.24;94744.53;5017434;28;20220;-76
2022/08/02 10:26:44;;;;;;;3.95;1.10;;;;;;;29.50;34.79;94743.53;5006389;28;20256;-77
2022/08/02 10:29:14;;;;;;;0.98;0.95;;;;;;;29.56;36.85;94736.78;5010258;28;20184;-77
2022/08/02 10:31:56;;;;;;;1.02;0.93;;;;;;;29.52;34.44;94735.06;5010870;28;20200;-77
2022/08/02 10:34:26;;;;;;;1.05;0.95;;;;;;;29.59;35.02;94725.25;5003353;28;20179;-77
2022/08/02 10:36:53;;;;;;;1.17;1.08;;;;;;;29.45;35.29;94730.16;5010902;28;20338;-77
2022/08/02 10:39:18;;;;;;;1.45;1.30;;;;;;;29.47;35.65;94727.13;5011448;28;20180;-77
2022/08/02 10:41:49;;;;;;;2.03;1.10;;;;;;;29.61;36.91;94712.13;5015009;28;20183;-78
2022/08/02 10:44:23;;;;;;;1.63;1.20;;;;;;;29.86;36.47;94718.44;5014228;28;20223;-78
2022/08/02 10:46:49;;;;;;;1.52;1.08;;;;;;;30.26;37.09;94729.50;4996611;28;20200;-78
2022/08/02 10:49:19;;;;;;;2.17;1.60;;;;;;;30.56;35.55;94730.09;5014227;28;20665;-77
2022/08/02 10:51:55;;;;;;;2.35;1.00;;;;;;;30.74;34.88;94720.59;5014388;28;20196;-78
2022/08/02 10:54:24;;;;;;;1.52;1.13;;;;;;;30.84;34.51;94727.50;5022727;28;20183;-78
2022/08/02 10:56:51;;;;;;;1.30;1.20;;;;;;;30.73;34.09;94732.59;5014766;28;20670;-77
2022/08/02 10:59:30;;;;;;;2.60;1.05;;;;;;;30.59;35.60;94718.56;5014567;28;20173;-78
2022/08/02 11:02:01;;;;;;;2.45;1.33;;;;;;;30.67;34.46;94725.81;5014917;28;20172;-78
2022/08/02 11:04:35;;;;;;;1.30;1.20;;;;;;;30.23;34.73;94726.66;5014622;28;20203;-78
2022/08/02 11:07:13;;;;;;;2.42;1.10;;;;;;;29.97;34.68;94726.97;5014025;28;20238;-80
2022/08/02 11:09:40;;;;;;;1.77;1.52;;;;;;;29.96;36.73;94718.03;5013521;28;20184;-79
2022/08/02 11:12:09;;;;;;;1.38;1.00;;;;;;;29.86;36.12;94723.06;5014101;28;20204;-78
2022/08/02 11:14:56;;;;;;;3.17;0.98;;;;;;;29.63;34.92;94712.59;5014450;28;20184;-78
2022/08/02 11:17:22;;;;;;;1.73;1.20;;;;;;;29.75;37.33;94717.25;5012903;28;20254;-78
2022/08/02 11:20:09;;;;;;;1.85;1.20;;;;;;;30.16;36.78;94723.72;5014572;28;20630;-79
2022/08/02 11:22:36;;;;;;;1.10;0.90;;;;;;;30.36;36.32;94704.59;5011936;28;20286;-78
2022/08/02 11:25:29;;;;;;;1.40;0.90;;;;;;;30.69;34.86;94725.47;5015453;28;20276;-77
2022/08/02 11:28:02;;;;;;;2.42;1.15;;;;;;;30.64;32.84;94725.69;5014765;28;20173;-77
2022/08/02 11:30:28;;;;;;;2.58;1.10;;;;;;;30.36;33.36;94709.22;5014675;28;20641;-77
2022/08/02 11:32:58;;;;;;;1.10;1.00;;;;;;;29.12;33.88;94574.75;5017310;28;20283;-77
2022/08/02 11:35:31;;;;;;;0.90;0.90;;;;;;;29.68;34.41;94724.38;5017021;28;20232;-77
2022/08/02 11:38:10;;;;;;;2.70;1.10;;;;;;;29.07;35.16;94719.44;5014490;28;20185;-77
2022/08/02 11:40:38;;;;;;;2.00;0.98;;;;;;;28.86;36.38;94707.81;5010830;28;20176;-78